createdAt,value
2018-03-08T00:00:51.185Z,99316.73
2018-03-08T00:03:18.666Z,99318.47
2018-03-08T00:05:46.222Z,99313.23
2018-03-08T00:08:13.727Z,99318.28
2018-03-08T00:10:41.189Z,99317.78
2018-03-08T00:13:08.646Z,99306.97
2018-03-08T00:15:36.238Z,99314.82
2018-03-08T00:18:03.692Z,99305.46
2018-03-08T00:20:31.156Z,99309.67
2018-03-08T00:22:58.716Z,99316.97
2018-03-08T00:25:26.176Z,99316.05
2018-03-08T00:27:53.652Z,99316.05
2018-03-08T00:30:21.178Z,99322.77
2018-03-08T00:32:48.652Z,99315.34
2018-03-08T00:35:16.118Z,99315.53
2018-03-08T00:37:43.585Z,99322.63
2018-03-08T00:40:11.110Z,99315.65
2018-03-08T00:42:38.703Z,99316.08
2018-03-08T00:45:06.175Z,99312.59
2018-03-08T00:47:33.688Z,99318.95
2018-03-08T00:50:01.180Z,99320.22
2018-03-08T00:52:28.681Z,99316.81
2018-03-08T00:54:56.155Z,99318.27
2018-03-08T00:57:23.614Z,99319.28
2018-03-08T00:59:51.120Z,99321.32
2018-03-08T01:02:18.584Z,99323.16
2018-03-08T01:04:46.058Z,99320.61
2018-03-08T01:07:13.537Z,99317.82
2018-03-08T01:09:41.037Z,99308.95
2018-03-08T01:12:08.504Z,99320.98
2018-03-08T01:14:35.988Z,99320.27
2018-03-08T01:17:03.480Z,99310.73
2018-03-08T01:19:30.945Z,99315.37
2018-03-08T01:21:58.429Z,99322.87
2018-03-08T01:24:25.923Z,99328.02
2018-03-08T01:26:53.382Z,99329.76
2018-03-08T01:29:20.836Z,99320.51
2018-03-08T01:31:48.351Z,99319.69
2018-03-08T01:34:15.811Z,99309.63
2018-03-08T01:36:43.279Z,99315.09
2018-03-08T01:39:10.766Z,99311.17
2018-03-08T01:41:38.237Z,99311.28
2018-03-08T01:44:05.701Z,99309.21
2018-03-08T01:46:33.185Z,99303.69
2018-03-08T01:49:00.648Z,99311.07
2018-03-08T01:51:28.129Z,99314.86
2018-03-08T01:53:55.650Z,99304.38
2018-03-08T01:56:23.206Z,99308.91
2018-03-08T01:58:50.701Z,99308.67
2018-03-08T02:01:18.204Z,99309.00
2018-03-08T02:03:45.688Z,99320.63
2018-03-08T02:06:13.194Z,99318.03
2018-03-08T02:08:40.666Z,99316.00
2018-03-08T02:13:42.065Z,99324.32
2018-03-08T02:16:09.561Z,99317.81
2018-03-08T02:18:37.039Z,99321.22
2018-03-08T02:21:04.554Z,99314.22
2018-03-08T02:23:32.013Z,99321.81
2018-03-08T02:25:59.569Z,99322.22
2018-03-08T02:28:27.113Z,99325.53
2018-03-08T02:30:54.589Z,99328.41
2018-03-08T02:33:22.081Z,99325.41
2018-03-08T02:35:49.575Z,99326.45
2018-03-08T02:38:17.064Z,99327.16
2018-03-08T02:40:44.573Z,99328.49
2018-03-08T02:43:12.039Z,99331.98
2018-03-08T02:45:39.531Z,99337.95
2018-03-08T02:48:07.026Z,99332.40
2018-03-08T02:50:34.530Z,99335.89
2018-03-08T02:53:02.011Z,99343.00
2018-03-08T02:55:29.509Z,99342.07
2018-03-08T02:57:56.996Z,99340.33
2018-03-08T03:00:24.485Z,99343.61
2018-03-08T03:02:52.022Z,99346.91
2018-03-08T03:05:19.497Z,99353.23
2018-03-08T03:07:46.961Z,99353.22
2018-03-08T03:10:14.445Z,99349.41
2018-03-08T03:12:41.926Z,99355.98
2018-03-08T03:15:09.396Z,99353.11
2018-03-08T03:17:36.856Z,99357.41
2018-03-08T03:20:04.351Z,99356.41
2018-03-08T03:22:31.847Z,99352.57
2018-03-08T03:24:59.353Z,99354.64
2018-03-08T03:27:26.852Z,99357.52
2018-03-08T03:29:54.324Z,99356.80
2018-03-08T03:32:21.802Z,99356.28
2018-03-08T03:34:49.306Z,99353.39
2018-03-08T03:37:16.782Z,99351.84
2018-03-08T03:39:44.260Z,99360.19
2018-03-08T03:42:11.735Z,99366.28
2018-03-08T03:44:39.222Z,99358.04
2018-03-08T03:47:06.700Z,99371.03
2018-03-08T03:49:34.179Z,99368.25
2018-03-08T03:52:01.687Z,99364.55
2018-03-08T03:54:29.152Z,99363.33
2018-03-08T03:56:56.632Z,99365.49
2018-03-08T03:59:24.169Z,99366.20
2018-03-08T04:01:51.734Z,99373.59
2018-03-08T04:04:19.259Z,99379.87
2018-03-08T04:06:46.760Z,99373.79
2018-03-08T04:09:14.248Z,99370.80
2018-03-08T04:11:41.728Z,99371.42
2018-03-08T04:14:09.219Z,99374.09
2018-03-08T04:16:36.714Z,99384.19
2018-03-08T04:19:04.223Z,99382.54
2018-03-08T04:21:31.735Z,99385.31
2018-03-08T04:23:59.243Z,99382.11
2018-03-08T04:26:26.752Z,99381.51
2018-03-08T04:28:54.247Z,99379.95
2018-03-08T04:31:21.702Z,99374.91
2018-03-08T04:33:49.189Z,99376.15
2018-03-08T04:36:16.687Z,99380.56
2018-03-08T04:38:44.150Z,99385.00
2018-03-08T04:41:11.626Z,99383.64
2018-03-08T04:43:39.122Z,99387.67
2018-03-08T04:46:06.584Z,99380.75
2018-03-08T04:48:34.053Z,99382.11
2018-03-08T04:51:01.571Z,99383.75
2018-03-08T04:53:29.130Z,99380.88
2018-03-08T04:55:56.632Z,99385.50
2018-03-08T04:58:24.130Z,99385.09
2018-03-08T05:00:51.636Z,99381.59
2018-03-08T05:03:19.102Z,99384.25
2018-03-08T05:05:46.591Z,99392.05
2018-03-08T05:08:14.065Z,99393.48
2018-03-08T05:10:41.537Z,99390.39
2018-03-08T05:13:09.020Z,99395.12
2018-03-08T05:15:36.492Z,99403.05
2018-03-08T05:18:03.952Z,99407.37
2018-03-08T05:20:31.439Z,99411.80
2018-03-08T05:22:58.935Z,99415.49
2018-03-08T05:25:26.435Z,99407.37
2018-03-08T05:27:53.918Z,99411.61
2018-03-08T05:30:21.501Z,99418.30
2018-03-08T05:32:49.007Z,99421.89
2018-03-08T05:35:16.470Z,99426.30
2018-03-08T05:37:43.941Z,99413.66
2018-03-08T05:40:11.638Z,99415.61
2018-03-08T05:42:39.096Z,99408.31
2018-03-08T05:45:06.565Z,99412.23
2018-03-08T05:47:34.054Z,99414.29
2018-03-08T05:50:01.523Z,99418.80
2018-03-08T05:52:29.044Z,99412.72
2018-03-08T05:54:56.567Z,99412.73
2018-03-08T05:57:24.035Z,99416.11
2018-03-08T05:59:51.504Z,99422.91
2018-03-08T06:02:19.005Z,99423.81
2018-03-08T06:04:46.500Z,99417.03
2018-03-08T06:07:14.003Z,99428.53
2018-03-08T06:09:41.489Z,99428.20
2018-03-08T06:12:09.012Z,99436.53
2018-03-08T06:14:36.516Z,99431.89
2018-03-08T06:17:03.980Z,99435.86
2018-03-08T06:19:31.519Z,99430.40
2018-03-08T06:21:59.024Z,99439.25
2018-03-08T06:24:26.483Z,99447.98
2018-03-08T06:26:53.987Z,99445.89
2018-03-08T06:29:21.475Z,99453.21
2018-03-08T06:31:48.926Z,99460.81
2018-03-08T06:34:16.398Z,99467.69
2018-03-08T06:36:43.907Z,99475.81
2018-03-08T06:39:11.408Z,99474.05
2018-03-08T06:41:38.866Z,99483.94
2018-03-08T06:44:06.479Z,99483.18
2018-03-08T06:46:33.995Z,99492.77
2018-03-08T06:49:01.496Z,99485.05
2018-03-08T06:51:29.020Z,99493.90
2018-03-08T06:53:56.580Z,99503.56
2018-03-08T06:56:24.062Z,99500.80
2018-03-08T06:58:51.575Z,99499.34
2018-03-08T07:01:19.087Z,99501.69
2018-03-08T07:03:46.553Z,99510.12
2018-03-08T07:06:14.031Z,99504.25
2018-03-08T07:08:41.584Z,99511.13
2018-03-08T07:11:09.051Z,99509.77
2018-03-08T07:13:36.532Z,99519.03
2018-03-08T07:16:04.090Z,99515.89
2018-03-08T07:18:31.564Z,99522.47
2018-03-08T07:20:59.019Z,99516.88
2018-03-08T07:23:26.559Z,99522.94
2018-03-08T07:25:54.021Z,99519.83
2018-03-08T07:28:21.491Z,99532.29
2018-03-08T07:30:49.250Z,99530.02
2018-03-08T07:33:16.734Z,99534.94
2018-03-08T07:35:44.215Z,99540.07
2018-03-08T07:38:11.690Z,99537.36
2018-03-08T07:40:39.168Z,99537.13
2018-03-08T07:43:06.660Z,99541.44
2018-03-08T07:45:34.131Z,99549.51
2018-03-08T07:48:01.604Z,99549.10
2018-03-08T07:50:29.078Z,99551.28
2018-03-08T07:52:56.543Z,99553.65
2018-03-08T07:55:24.113Z,99561.45
2018-03-08T07:57:51.576Z,99564.72
2018-03-08T08:00:19.056Z,99565.82
2018-03-08T08:02:46.553Z,99566.31
2018-03-08T08:05:25.984Z,99564.21
2018-03-08T08:08:05.263Z,99575.95
2018-03-08T08:10:32.811Z,99579.78
2018-03-08T08:13:00.252Z,99587.41
2018-03-08T08:15:27.750Z,99586.69
2018-03-08T08:17:55.207Z,99588.44
2018-03-08T08:20:22.734Z,99583.27
2018-03-08T08:22:50.227Z,99589.63
2018-03-08T08:25:17.778Z,99586.38
2018-03-08T08:27:45.239Z,99587.59
2018-03-08T08:30:12.774Z,99589.67
2018-03-08T08:32:40.347Z,99602.71
2018-03-08T08:35:07.840Z,99600.55
2018-03-08T08:37:35.324Z,99598.92
2018-03-08T08:40:02.809Z,99604.44
2018-03-08T08:42:30.319Z,99612.41
2018-03-08T08:44:57.827Z,99608.78
2018-03-08T08:47:25.314Z,99616.30
2018-03-08T08:49:52.838Z,99612.72
2018-03-08T08:52:20.302Z,99624.67
2018-03-08T08:54:47.824Z,99618.67
2018-03-08T08:57:15.337Z,99627.23
2018-03-08T08:59:42.807Z,99634.17
2018-03-08T09:02:10.310Z,99635.61
2018-03-08T09:04:37.778Z,99638.78
2018-03-08T09:07:05.308Z,99638.87
2018-03-08T09:09:32.841Z,99650.62
2018-03-08T09:12:00.375Z,99648.78
2018-03-08T09:14:27.852Z,99649.19
2018-03-08T09:16:55.305Z,99650.03
2018-03-08T09:19:22.755Z,99656.71
2018-03-08T09:21:50.246Z,99658.87
2018-03-08T09:24:17.719Z,99663.83
2018-03-08T09:26:45.174Z,99662.08
2018-03-08T09:29:12.673Z,99662.28
2018-03-08T09:31:40.197Z,99663.73
2018-03-08T09:34:07.781Z,99667.97
2018-03-08T09:36:35.376Z,99668.28
2018-03-08T09:39:02.913Z,99667.27
2018-03-08T09:41:30.376Z,99671.02
2018-03-08T09:43:57.878Z,99678.66
2018-03-08T09:46:25.358Z,99680.31
2018-03-08T09:48:52.814Z,99686.00
2018-03-08T09:51:20.279Z,99688.77
2018-03-08T09:53:47.760Z,99687.45
2018-03-08T09:56:15.233Z,99682.52
2018-03-08T09:58:42.738Z,99683.55
2018-03-08T10:01:10.205Z,99694.08
2018-03-08T10:03:37.685Z,99695.62
2018-03-08T10:06:05.159Z,99690.60
2018-03-08T10:08:32.626Z,99696.57
2018-03-08T10:11:00.096Z,99694.39
2018-03-08T10:13:27.615Z,99697.78
2018-03-08T10:15:55.073Z,99702.92
2018-03-08T10:18:22.586Z,99703.97
2018-03-08T10:20:50.090Z,99701.58
2018-03-08T10:23:17.542Z,99704.88
2018-03-08T10:25:45.025Z,99708.17
2018-03-08T10:28:12.558Z,99704.45
2018-03-08T10:30:40.061Z,99709.72
2018-03-08T10:33:07.623Z,99712.09
2018-03-08T10:35:35.150Z,99717.41
2018-03-08T10:38:02.628Z,99717.38
2018-03-08T10:42:57.605Z,99724.20
2018-03-08T10:45:25.089Z,99724.83
2018-03-08T10:47:52.540Z,99732.68
2018-03-08T10:50:20.032Z,99739.48
2018-03-08T10:52:47.556Z,99734.82
2018-03-08T10:55:15.060Z,99739.13
2018-03-08T10:57:42.526Z,99736.45
2018-03-08T11:00:09.996Z,99743.48
2018-03-08T11:02:43.161Z,99741.91
2018-03-08T11:05:10.640Z,99752.83
2018-03-08T11:07:38.120Z,99742.80
2018-03-08T11:10:05.597Z,99746.25
2018-03-08T11:12:33.100Z,99741.85
2018-03-08T11:15:00.631Z,99747.77
2018-03-08T11:17:28.102Z,99745.63
2018-03-08T11:19:55.638Z,99750.20
2018-03-08T11:22:23.114Z,99739.63
2018-03-08T11:24:50.589Z,99751.67
2018-03-08T11:27:18.090Z,99745.86
2018-03-08T11:29:45.639Z,99747.84
2018-03-08T11:32:13.155Z,99749.43
2018-03-08T11:34:40.631Z,99750.81
2018-03-08T11:37:08.202Z,99749.14
2018-03-08T11:39:35.692Z,99742.44
2018-03-08T11:42:03.162Z,99748.61
2018-03-08T11:44:30.640Z,99749.23
2018-03-08T11:46:58.090Z,99751.06
2018-03-08T11:49:25.643Z,99739.74
2018-03-08T11:51:53.135Z,99749.01
2018-03-08T11:54:20.596Z,99752.53
2018-03-08T11:56:48.091Z,99747.27
2018-03-08T11:59:15.656Z,99750.58
2018-03-08T12:01:43.110Z,99752.27
2018-03-08T12:04:10.588Z,99752.79
2018-03-08T12:06:38.055Z,99757.50
2018-03-08T12:09:05.515Z,99751.02
2018-03-08T12:11:32.991Z,99750.29
2018-03-08T12:14:00.493Z,99748.83
2018-03-08T12:16:27.958Z,99750.27
2018-03-08T12:18:55.410Z,99748.66
2018-03-08T12:21:23.004Z,99751.49
2018-03-08T12:23:50.463Z,99750.71
2018-03-08T12:26:17.922Z,99748.20
2018-03-08T12:28:45.406Z,99750.66
2018-03-08T12:31:12.975Z,99747.41
2018-03-08T12:33:40.443Z,99753.03
2018-03-08T12:36:08.133Z,99742.59
2018-03-08T12:38:35.614Z,99742.17
2018-03-08T12:41:03.067Z,99749.52
2018-03-08T12:43:30.583Z,99745.83
2018-03-08T12:45:58.086Z,99743.95
2018-03-08T12:48:25.543Z,99744.71
2018-03-08T12:50:53.006Z,99732.92
2018-03-08T12:53:20.512Z,99736.23
2018-03-08T12:55:48.058Z,99741.69
2018-03-08T12:58:15.633Z,99732.11
2018-03-08T13:00:43.122Z,99738.61
2018-03-08T13:03:10.597Z,99740.03
2018-03-08T13:05:38.107Z,99735.61
2018-03-08T13:08:05.587Z,99733.33
2018-03-08T13:10:33.048Z,99734.69
2018-03-08T13:13:00.522Z,99731.33
2018-03-08T13:15:27.996Z,99725.94
2018-03-08T13:17:55.578Z,99729.59
2018-03-08T13:20:23.030Z,99731.23
2018-03-08T13:22:50.488Z,99728.00
2018-03-08T13:25:18.004Z,99724.58
2018-03-08T13:27:45.500Z,99721.21
2018-03-08T13:30:12.966Z,99726.66
2018-03-08T13:32:40.544Z,99722.02
2018-03-08T13:35:08.106Z,99722.88
2018-03-08T13:37:35.612Z,99726.61
2018-03-08T13:40:03.071Z,99727.00
2018-03-08T13:42:30.536Z,99719.38
2018-03-08T13:44:58.005Z,99718.00
2018-03-08T13:47:25.467Z,99712.66
2018-03-08T13:49:52.971Z,99716.05
2018-03-08T13:52:20.438Z,99709.62
2018-03-08T13:54:47.971Z,99719.80
2018-03-08T13:57:15.482Z,99719.45
2018-03-08T13:59:42.938Z,99719.02
2018-03-08T14:02:10.391Z,99712.93
2018-03-08T14:04:37.867Z,99714.45
2018-03-08T14:07:05.330Z,99722.82
2018-03-08T14:09:32.791Z,99719.59
2018-03-08T14:12:00.267Z,99717.97
2018-03-08T14:14:27.759Z,99723.55
2018-03-08T14:16:55.225Z,99722.38
2018-03-08T14:19:22.725Z,99716.84
2018-03-08T14:21:50.195Z,99713.83
2018-03-08T14:24:17.742Z,99712.03
2018-03-08T14:26:45.211Z,99704.63
2018-03-08T14:29:12.718Z,99697.52
2018-03-08T14:31:40.183Z,99703.27
2018-03-08T14:34:07.662Z,99708.11
2018-03-08T14:36:35.168Z,99702.16
2018-03-08T14:39:02.628Z,99703.84
2018-03-08T14:41:30.089Z,99707.00
2018-03-08T14:43:57.576Z,99703.95
2018-03-08T14:46:25.062Z,99696.09
2018-03-08T14:48:52.534Z,99696.24
2018-03-08T14:51:20.040Z,99699.36
2018-03-08T14:53:47.514Z,99692.91
2018-03-08T14:56:15.001Z,99691.59
2018-03-08T14:58:42.457Z,99688.87
2018-03-08T15:01:09.921Z,99688.73
2018-03-08T15:03:37.410Z,99684.87
2018-03-08T15:06:04.863Z,99685.51
2018-03-08T15:08:32.355Z,99685.64
2018-03-08T15:10:59.816Z,99687.77
2018-03-08T15:13:27.293Z,99690.94
2018-03-08T15:15:54.800Z,99686.84
2018-03-08T15:18:22.283Z,99686.25
2018-03-08T15:20:49.740Z,99682.74
2018-03-08T15:25:51.083Z,99676.58
2018-03-08T15:28:18.565Z,99680.81
2018-03-08T15:30:46.043Z,99675.77
2018-03-08T15:33:13.502Z,99675.99
2018-03-08T15:35:40.983Z,99671.84
2018-03-08T15:38:08.522Z,99669.69
2018-03-08T15:40:35.974Z,99670.33
2018-03-08T15:43:03.449Z,99667.41
2018-03-08T15:45:30.906Z,99671.55
2018-03-08T15:47:58.415Z,99670.30
2018-03-08T15:50:25.889Z,99663.80
2018-03-08T15:52:53.351Z,99668.75
2018-03-08T15:55:20.831Z,99662.87
2018-03-08T15:57:48.371Z,99662.52
2018-03-08T16:00:15.824Z,99667.52
2018-03-08T16:02:43.405Z,99662.03
2018-03-08T16:05:10.866Z,99668.20
2018-03-08T16:07:49.970Z,99667.64
2018-03-08T16:10:40.178Z,99667.06
2018-03-08T16:13:07.773Z,99668.22
2018-03-08T16:15:35.259Z,99673.56
2018-03-08T16:18:02.711Z,99665.03
2018-03-08T16:20:30.173Z,99670.38
2018-03-08T16:22:57.650Z,99670.63
2018-03-08T16:25:25.125Z,99666.14
2018-03-08T16:27:52.580Z,99659.39
2018-03-08T16:30:20.074Z,99657.30
2018-03-08T16:32:47.526Z,99661.58
2018-03-08T16:35:14.974Z,99662.76
2018-03-08T16:37:42.455Z,99665.49
2018-03-08T16:40:09.902Z,99658.95
2018-03-08T16:42:37.350Z,99659.66
2018-03-08T16:45:04.823Z,99653.61
2018-03-08T16:47:32.283Z,99653.24
2018-03-08T16:49:59.746Z,99657.08
2018-03-08T16:52:27.231Z,99659.17
2018-03-08T16:54:54.701Z,99651.98
2018-03-08T16:57:22.212Z,99651.63
2018-03-08T16:59:49.651Z,99654.88
2018-03-08T17:02:17.142Z,99651.74
2018-03-08T17:04:44.683Z,99653.24
2018-03-08T17:07:12.201Z,99652.96
2018-03-08T17:09:39.698Z,99658.23
2018-03-08T17:12:07.150Z,99654.09
2018-03-08T17:14:34.686Z,99656.66
2018-03-08T17:17:02.158Z,99658.95
2018-03-08T17:19:29.607Z,99663.21
2018-03-08T17:21:57.198Z,99661.05
2018-03-08T17:24:24.626Z,99660.77
2018-03-08T17:26:52.090Z,99661.68
2018-03-08T17:29:19.611Z,99660.52
2018-03-08T17:31:47.062Z,99666.44
2018-03-08T17:34:14.528Z,99666.78
2018-03-08T17:36:42.446Z,99671.93
2018-03-08T17:39:09.917Z,99664.73
2018-03-08T17:41:37.438Z,99666.36
2018-03-08T17:44:04.895Z,99663.73
2018-03-08T17:46:32.351Z,99659.27
2018-03-08T17:48:59.821Z,99661.70
2018-03-08T17:51:27.307Z,99658.30
2018-03-08T17:53:54.854Z,99655.29
2018-03-08T17:56:22.309Z,99656.66
2018-03-08T17:58:49.787Z,99646.73
2018-03-08T18:01:17.276Z,99650.47
2018-03-08T18:03:44.743Z,99646.84
2018-03-08T18:06:12.204Z,99647.55
2018-03-08T18:08:39.677Z,99649.80
2018-03-08T18:11:07.151Z,99645.85
2018-03-08T18:13:34.644Z,99650.44
2018-03-08T18:16:02.098Z,99645.08
2018-03-08T18:18:29.551Z,99646.30
2018-03-08T18:20:57.044Z,99643.82
2018-03-08T18:23:24.501Z,99643.80
2018-03-08T18:25:51.999Z,99643.39
2018-03-08T18:28:19.455Z,99643.44
2018-03-08T18:30:46.921Z,99641.09
2018-03-08T18:33:14.426Z,99638.05
2018-03-08T18:35:43.064Z,99638.67
2018-03-08T18:38:10.596Z,99638.06
2018-03-08T18:40:38.292Z,99632.28
2018-03-08T18:43:05.751Z,99630.33
2018-03-08T18:45:33.205Z,99639.67
2018-03-08T18:48:02.339Z,99636.91
2018-03-08T18:50:29.911Z,99627.22
2018-03-08T18:52:57.360Z,99623.92
2018-03-08T18:55:24.827Z,99624.80
2018-03-08T18:57:52.300Z,99623.95
2018-03-08T19:00:19.848Z,99621.31
2018-03-08T19:02:47.306Z,99615.05
2018-03-08T19:05:14.762Z,99615.59
2018-03-08T19:07:43.063Z,99610.08
2018-03-08T19:10:10.532Z,99602.47
2018-03-08T19:12:37.990Z,99597.09
2018-03-08T19:15:05.462Z,99595.08
2018-03-08T19:17:32.948Z,99594.88
2018-03-08T19:20:00.432Z,99588.09
2018-03-08T19:22:28.059Z,99591.18
2018-03-08T19:24:55.541Z,99595.94
2018-03-08T19:27:23.022Z,99596.22
2018-03-08T19:29:50.486Z,99598.38
2018-03-08T19:32:17.987Z,99592.14
2018-03-08T19:34:45.460Z,99595.84
2018-03-08T19:37:13.079Z,99590.25
2018-03-08T19:39:40.602Z,99592.89
2018-03-08T19:42:08.095Z,99589.86
2018-03-08T19:44:35.570Z,99597.84
2018-03-08T19:47:03.057Z,99594.33
2018-03-08T19:49:30.591Z,99588.83
2018-03-08T19:51:58.066Z,99586.36
2018-03-08T19:54:25.528Z,99588.85
2018-03-08T19:56:53.028Z,99584.33
2018-03-08T19:59:20.490Z,99587.76
2018-03-08T20:01:47.956Z,99586.41
2018-03-08T20:04:15.447Z,99582.98
2018-03-08T20:06:42.917Z,99577.67
2018-03-08T20:09:10.409Z,99580.89
2018-03-08T20:11:37.894Z,99577.81
2018-03-08T20:14:05.402Z,99575.05
2018-03-08T20:16:32.871Z,99576.45
2018-03-08T20:19:00.365Z,99578.83
2018-03-08T20:21:27.855Z,99574.03
2018-03-08T20:23:55.326Z,99573.02
2018-03-08T20:26:22.802Z,99569.82
2018-03-08T20:28:50.290Z,99573.38
2018-03-08T20:31:17.751Z,99573.38
2018-03-08T20:33:45.258Z,99565.55
2018-03-08T20:36:12.763Z,99568.12
2018-03-08T20:38:40.322Z,99562.94
2018-03-08T20:41:07.852Z,99558.37
2018-03-08T20:43:35.608Z,99566.73
2018-03-08T20:46:03.074Z,99564.36
2018-03-08T20:48:30.662Z,99557.92
2018-03-08T20:50:58.167Z,99558.12
2018-03-08T20:53:25.663Z,99556.97
2018-03-08T20:55:53.134Z,99553.00
2018-03-08T20:58:20.627Z,99554.83
2018-03-08T21:00:48.109Z,99554.90
2018-03-08T21:03:15.576Z,99554.69
2018-03-08T21:05:43.051Z,99557.73
2018-03-08T21:08:10.494Z,99562.36
2018-03-08T21:10:40.807Z,99554.77
2018-03-08T21:13:08.304Z,99556.52
2018-03-08T21:15:35.828Z,99562.84
2018-03-08T21:18:03.386Z,99571.02
2018-03-08T21:20:30.889Z,99571.55
2018-03-08T21:22:58.432Z,99569.15
2018-03-08T21:25:25.908Z,99571.96
2018-03-08T21:27:53.436Z,99566.87
2018-03-08T21:30:20.936Z,99576.59
2018-03-08T21:32:48.418Z,99576.34
2018-03-08T21:35:15.877Z,99573.66
2018-03-08T21:37:43.457Z,99583.74
2018-03-08T21:40:10.914Z,99585.35
2018-03-08T21:45:05.180Z,99578.06
2018-03-08T21:47:32.662Z,99571.41
2018-03-08T21:50:00.132Z,99567.85
2018-03-08T21:52:27.598Z,99569.13
2018-03-08T21:54:55.052Z,99561.66
2018-03-08T21:57:22.531Z,99556.13
2018-03-08T21:59:50.025Z,99549.27
2018-03-08T22:02:17.731Z,99542.69
2018-03-08T22:04:45.179Z,99543.88
2018-03-08T22:07:12.666Z,99534.20
2018-03-08T22:09:40.232Z,99546.09
2018-03-08T22:12:07.708Z,99539.66
2018-03-08T22:14:35.176Z,99532.13
2018-03-08T22:17:02.633Z,99525.31
2018-03-08T22:19:30.110Z,99505.00
2018-03-08T22:21:57.587Z,99497.11
2018-03-08T22:24:25.051Z,99485.36
2018-03-08T22:26:52.656Z,99476.48
2018-03-08T22:29:20.132Z,99485.36
2018-03-08T22:31:47.591Z,99490.48
2018-03-08T22:34:15.085Z,99477.82
2018-03-08T22:36:42.589Z,99481.58
2018-03-08T22:39:10.072Z,99484.57
2018-03-08T22:41:37.726Z,99477.98
2018-03-08T22:44:05.184Z,99495.97
2018-03-08T22:46:32.686Z,99500.45
2018-03-08T22:49:00.152Z,99506.97
2018-03-08T22:51:27.651Z,99512.79
2018-03-08T22:53:55.118Z,99510.63
2018-03-08T22:56:22.639Z,99526.13
2018-03-08T22:58:50.101Z,99530.17
2018-03-08T23:04:33.450Z,99535.99
2018-03-08T23:07:00.919Z,99553.92
2018-03-08T23:09:28.463Z,99571.14
2018-03-08T23:11:56.168Z,99572.02
2018-03-08T23:14:23.678Z,99576.88
2018-03-08T23:16:51.122Z,99581.63
2018-03-08T23:19:18.595Z,99584.38
2018-03-08T23:21:46.054Z,99585.52
2018-03-08T23:24:13.529Z,99586.53
2018-03-08T23:26:41.007Z,99586.23
2018-03-08T23:29:08.461Z,99597.34
2018-03-08T23:31:35.903Z,99594.98
2018-03-08T23:34:03.500Z,99597.06
2018-03-08T23:36:30.958Z,99591.57
2018-03-08T23:38:58.412Z,99585.08
2018-03-08T23:41:25.970Z,99590.23
2018-03-08T23:43:53.429Z,99579.72
2018-03-08T23:46:20.918Z,99566.23
2018-03-08T23:48:48.404Z,99554.92
2018-03-08T23:51:15.850Z,99546.38
2018-03-08T23:53:43.356Z,99550.11
2018-03-08T23:56:10.807Z,99555.70
2018-03-08T23:58:38.260Z,99561.07
